sensor_id;sensor_type;location;lat;lon;timestamp;temperature;humidity
23291;DHT22;11814;44.686;10.842;2023-05-07T00:00:00;18.80;99.90
23291;DHT22;11814;44.686;10.842;2023-05-07T00:02:26;18.70;99.90
23291;DHT22;11814;44.686;10.842;2023-05-07T00:04:52;18.70;99.90
23291;DHT22;11814;44.686;10.842;2023-05-07T00:07:18;18.60;99.90
23291;DHT22;11814;44.686;10.842;2023-05-07T00:09:43;18.60;99.90
23291;DHT22;11814;44.686;10.842;2023-05-07T00:12:10;18.60;99.90
23291;DHT22;11814;44.686;10.842;2023-05-07T00:14:36;18.60;99.90
23291;DHT22;11814;44.686;10.842;2023-05-07T00:17:01;18.50;99.90
23291;DHT22;11814;44.686;10.842;2023-05-07T00:19:27;18.50;99.90
23291;DHT22;11814;44.686;10.842;2023-05-07T00:21:53;18.40;99.90
23291;DHT22;11814;44.686;10.842;2023-05-07T00:24:22;18.40;99.90
23291;DHT22;11814;44.686;10.842;2023-05-07T00:26:48;18.50;99.90
23291;DHT22;11814;44.686;10.842;2023-05-07T00:29:13;18.40;99.90
23291;DHT22;11814;44.686;10.842;2023-05-07T00:31:39;18.40;99.90
23291;DHT22;11814;44.686;10.842;2023-05-07T00:34:05;18.40;99.90
23291;DHT22;11814;44.686;10.842;2023-05-07T00:36:31;18.40;99.90
23291;DHT22;11814;44.686;10.842;2023-05-07T00:38:59;18.40;99.90
23291;DHT22;11814;44.686;10.842;2023-05-07T00:41:26;18.40;99.90
23291;DHT22;11814;44.686;10.842;2023-05-07T00:43:52;18.30;99.90
23291;DHT22;11814;44.686;10.842;2023-05-07T00:46:20;18.20;99.90
23291;DHT22;11814;44.686;10.842;2023-05-07T00:48:46;18.10;99.90
23291;DHT22;11814;44.686;10.842;2023-05-07T00:51:12;18.00;99.90
23291;DHT22;11814;44.686;10.842;2023-05-07T00:53:38;17.90;99.90
23291;DHT22;11814;44.686;10.842;2023-05-07T00:56:05;17.90;99.90
23291;DHT22;11814;44.686;10.842;2023-05-07T00:58:32;17.90;99.90
23291;DHT22;11814;44.686;10.842;2023-05-07T01:00:59;17.90;99.90
23291;DHT22;11814;44.686;10.842;2023-05-07T01:03:24;17.90;99.90
23291;DHT22;11814;44.686;10.842;2023-05-07T01:05:52;17.90;99.90
23291;DHT22;11814;44.686;10.842;2023-05-07T01:08:19;17.90;99.90
23291;DHT22;11814;44.686;10.842;2023-05-07T01:10:46;17.90;99.90
23291;DHT22;11814;44.686;10.842;2023-05-07T01:13:12;17.80;99.90
23291;DHT22;11814;44.686;10.842;2023-05-07T01:15:39;17.80;99.90
23291;DHT22;11814;44.686;10.842;2023-05-07T01:18:06;17.80;99.90
23291;DHT22;11814;44.686;10.842;2023-05-07T01:20:32;17.80;99.90
23291;DHT22;11814;44.686;10.842;2023-05-07T01:23:00;17.80;99.90
23291;DHT22;11814;44.686;10.842;2023-05-07T01:25:26;17.70;99.90
23291;DHT22;11814;44.686;10.842;2023-05-07T01:27:51;17.70;99.90
23291;DHT22;11814;44.686;10.842;2023-05-07T01:30:19;17.70;99.90
23291;DHT22;11814;44.686;10.842;2023-05-07T01:33:04;17.70;99.90
23291;DHT22;11814;44.686;10.842;2023-05-07T01:35:36;17.70;99.90
23291;DHT22;11814;44.686;10.842;2023-05-07T01:38:03;17.70;99.90
23291;DHT22;11814;44.686;10.842;2023-05-07T01:40:31;17.70;99.90
23291;DHT22;11814;44.686;10.842;2023-05-07T01:42:57;17.70;99.90
23291;DHT22;11814;44.686;10.842;2023-05-07T01:45:23;17.70;99.90
23291;DHT22;11814;44.686;10.842;2023-05-07T01:47:49;17.70;99.90
23291;DHT22;11814;44.686;10.842;2023-05-07T01:50:17;17.80;99.90
23291;DHT22;11814;44.686;10.842;2023-05-07T01:52:44;17.80;99.90
23291;DHT22;11814;44.686;10.842;2023-05-07T01:55:09;17.80;99.90
23291;DHT22;11814;44.686;10.842;2023-05-07T01:57:35;17.80;99.90
23291;DHT22;11814;44.686;10.842;2023-05-07T02:00:01;17.80;99.90
23291;DHT22;11814;44.686;10.842;2023-05-07T02:02:30;17.80;99.90
23291;DHT22;11814;44.686;10.842;2023-05-07T02:04:56;17.80;99.90
23291;DHT22;11814;44.686;10.842;2023-05-07T02:07:22;17.80;99.90
23291;DHT22;11814;44.686;10.842;2023-05-07T02:09:48;17.80;99.90
23291;DHT22;11814;44.686;10.842;2023-05-07T02:12:14;17.80;99.90
23291;DHT22;11814;44.686;10.842;2023-05-07T02:14:39;17.70;99.90
23291;DHT22;11814;44.686;10.842;2023-05-07T02:17:05;17.70;99.90
23291;DHT22;11814;44.686;10.842;2023-05-07T02:19:31;17.70;99.90
23291;DHT22;11814;44.686;10.842;2023-05-07T02:21:57;17.70;99.90
23291;DHT22;11814;44.686;10.842;2023-05-07T02:24:22;17.70;99.90
23291;DHT22;11814;44.686;10.842;2023-05-07T02:26:48;17.70;99.90
23291;DHT22;11814;44.686;10.842;2023-05-07T02:29:14;17.70;99.90
23291;DHT22;11814;44.686;10.842;2023-05-07T02:31:39;17.60;99.90
23291;DHT22;11814;44.686;10.842;2023-05-07T02:34:05;17.60;99.90
23291;DHT22;11814;44.686;10.842;2023-05-07T02:36:31;17.50;99.90
23291;DHT22;11814;44.686;10.842;2023-05-07T02:38:57;17.40;99.90
23291;DHT22;11814;44.686;10.842;2023-05-07T02:41:23;17.40;99.90
23291;DHT22;11814;44.686;10.842;2023-05-07T02:43:48;17.40;99.90
23291;DHT22;11814;44.686;10.842;2023-05-07T02:46:14;17.30;99.90
23291;DHT22;11814;44.686;10.842;2023-05-07T02:48:41;17.30;99.90
23291;DHT22;11814;44.686;10.842;2023-05-07T02:51:07;17.20;99.90
23291;DHT22;11814;44.686;10.842;2023-05-07T02:53:32;17.20;99.90
23291;DHT22;11814;44.686;10.842;2023-05-07T02:55:59;17.20;99.90
23291;DHT22;11814;44.686;10.842;2023-05-07T02:58:25;17.20;99.90
23291;DHT22;11814;44.686;10.842;2023-05-07T03:00:51;17.10;99.90
23291;DHT22;11814;44.686;10.842;2023-05-07T03:03:17;17.10;99.90
23291;DHT22;11814;44.686;10.842;2023-05-07T03:05:43;17.00;99.90
23291;DHT22;11814;44.686;10.842;2023-05-07T03:08:09;17.00;99.90
23291;DHT22;11814;44.686;10.842;2023-05-07T03:10:36;16.90;99.90
23291;DHT22;11814;44.686;10.842;2023-05-07T03:13:02;16.90;99.90
23291;DHT22;11814;44.686;10.842;2023-05-07T03:15:28;16.80;99.90
23291;DHT22;11814;44.686;10.842;2023-05-07T03:17:53;16.80;99.90
23291;DHT22;11814;44.686;10.842;2023-05-07T03:20:19;16.80;99.90
23291;DHT22;11814;44.686;10.842;2023-05-07T03:22:45;16.80;99.90
23291;DHT22;11814;44.686;10.842;2023-05-07T03:25:11;16.70;99.90
23291;DHT22;11814;44.686;10.842;2023-05-07T03:27:37;16.70;99.90
23291;DHT22;11814;44.686;10.842;2023-05-07T03:30:04;16.80;99.90
23291;DHT22;11814;44.686;10.842;2023-05-07T03:32:29;16.70;99.90
23291;DHT22;11814;44.686;10.842;2023-05-07T03:34:55;16.80;99.90
23291;DHT22;11814;44.686;10.842;2023-05-07T03:37:21;16.70;99.90
23291;DHT22;11814;44.686;10.842;2023-05-07T03:39:47;16.70;99.90
23291;DHT22;11814;44.686;10.842;2023-05-07T03:42:13;16.70;99.90
23291;DHT22;11814;44.686;10.842;2023-05-07T03:44:38;16.60;99.90
23291;DHT22;11814;44.686;10.842;2023-05-07T03:47:04;16.70;99.90
23291;DHT22;11814;44.686;10.842;2023-05-07T03:49:30;16.70;99.90
23291;DHT22;11814;44.686;10.842;2023-05-07T03:51:56;16.70;99.90
23291;DHT22;11814;44.686;10.842;2023-05-07T03:54:22;16.70;99.90
23291;DHT22;11814;44.686;10.842;2023-05-07T03:56:47;16.70;99.90
23291;DHT22;11814;44.686;10.842;2023-05-07T03:59:13;16.70;99.90
23291;DHT22;11814;44.686;10.842;2023-05-07T04:01:39;16.60;99.90
23291;DHT22;11814;44.686;10.842;2023-05-07T04:04:05;16.70;99.90
23291;DHT22;11814;44.686;10.842;2023-05-07T04:06:31;16.60;99.90
23291;DHT22;11814;44.686;10.842;2023-05-07T04:08:57;16.60;99.90
23291;DHT22;11814;44.686;10.842;2023-05-07T04:11:23;16.60;99.90
23291;DHT22;11814;44.686;10.842;2023-05-07T04:13:49;16.60;99.90
23291;DHT22;11814;44.686;10.842;2023-05-07T04:16:15;16.60;99.90
23291;DHT22;11814;44.686;10.842;2023-05-07T04:18:41;16.70;99.90
23291;DHT22;11814;44.686;10.842;2023-05-07T04:21:20;16.60;99.90
23291;DHT22;11814;44.686;10.842;2023-05-07T04:23:47;16.50;99.90
23291;DHT22;11814;44.686;10.842;2023-05-07T04:26:13;16.50;99.90
23291;DHT22;11814;44.686;10.842;2023-05-07T04:28:39;16.50;99.90
23291;DHT22;11814;44.686;10.842;2023-05-07T04:31:06;16.50;99.90
23291;DHT22;11814;44.686;10.842;2023-05-07T04:33:32;16.60;99.90
23291;DHT22;11814;44.686;10.842;2023-05-07T04:36:01;16.60;99.90
23291;DHT22;11814;44.686;10.842;2023-05-07T04:38:29;16.70;99.90
23291;DHT22;11814;44.686;10.842;2023-05-07T04:40:55;16.70;99.90
23291;DHT22;11814;44.686;10.842;2023-05-07T04:43:22;16.70;99.90
23291;DHT22;11814;44.686;10.842;2023-05-07T04:45:52;16.70;99.90
23291;DHT22;11814;44.686;10.842;2023-05-07T04:48:18;16.70;99.90
23291;DHT22;11814;44.686;10.842;2023-05-07T04:50:51;16.70;99.90
23291;DHT22;11814;44.686;10.842;2023-05-07T04:53:17;16.70;99.90
23291;DHT22;11814;44.686;10.842;2023-05-07T04:55:44;16.80;99.90
23291;DHT22;11814;44.686;10.842;2023-05-07T04:58:10;16.80;99.90
23291;DHT22;11814;44.686;10.842;2023-05-07T05:00:37;16.90;99.90
23291;DHT22;11814;44.686;10.842;2023-05-07T05:03:04;16.90;99.90
23291;DHT22;11814;44.686;10.842;2023-05-07T05:05:30;17.00;99.90
23291;DHT22;11814;44.686;10.842;2023-05-07T05:07:56;17.00;99.90
23291;DHT22;11814;44.686;10.842;2023-05-07T05:10:22;17.10;99.90
23291;DHT22;11814;44.686;10.842;2023-05-07T05:12:48;17.20;99.90
23291;DHT22;11814;44.686;10.842;2023-05-07T05:15:13;17.20;99.90
23291;DHT22;11814;44.686;10.842;2023-05-07T05:17:39;17.30;99.90
23291;DHT22;11814;44.686;10.842;2023-05-07T05:20:06;17.30;99.90
23291;DHT22;11814;44.686;10.842;2023-05-07T05:22:32;17.30;99.90
23291;DHT22;11814;44.686;10.842;2023-05-07T05:24:58;17.40;99.90
23291;DHT22;11814;44.686;10.842;2023-05-07T05:27:24;17.60;99.90
23291;DHT22;11814;44.686;10.842;2023-05-07T05:29:49;17.80;99.90
23291;DHT22;11814;44.686;10.842;2023-05-07T05:32:15;18.10;99.90
23291;DHT22;11814;44.686;10.842;2023-05-07T05:34:41;18.20;99.90
23291;DHT22;11814;44.686;10.842;2023-05-07T05:37:06;18.30;99.90
23291;DHT22;11814;44.686;10.842;2023-05-07T05:39:32;18.40;99.90
23291;DHT22;11814;44.686;10.842;2023-05-07T05:41:58;18.70;99.90
23291;DHT22;11814;44.686;10.842;2023-05-07T05:44:24;19.00;99.90
23291;DHT22;11814;44.686;10.842;2023-05-07T05:46:50;19.30;99.90
23291;DHT22;11814;44.686;10.842;2023-05-07T05:49:16;19.50;99.90
23291;DHT22;11814;44.686;10.842;2023-05-07T05:51:42;19.80;99.90
23291;DHT22;11814;44.686;10.842;2023-05-07T05:54:08;20.10;99.90
23291;DHT22;11814;44.686;10.842;2023-05-07T05:56:34;20.30;99.90
23291;DHT22;11814;44.686;10.842;2023-05-07T05:59:00;20.50;99.90
23291;DHT22;11814;44.686;10.842;2023-05-07T06:01:25;20.50;99.90
23291;DHT22;11814;44.686;10.842;2023-05-07T06:03:52;20.60;99.90
23291;DHT22;11814;44.686;10.842;2023-05-07T06:06:17;20.70;99.90
23291;DHT22;11814;44.686;10.842;2023-05-07T06:08:43;20.80;99.90
23291;DHT22;11814;44.686;10.842;2023-05-07T06:11:09;20.80;99.90
23291;DHT22;11814;44.686;10.842;2023-05-07T06:13:35;20.80;99.90
23291;DHT22;11814;44.686;10.842;2023-05-07T06:16:00;20.80;99.90
23291;DHT22;11814;44.686;10.842;2023-05-07T06:18:26;20.80;99.90
23291;DHT22;11814;44.686;10.842;2023-05-07T06:20:52;20.90;99.90
23291;DHT22;11814;44.686;10.842;2023-05-07T06:23:18;21.00;99.90
23291;DHT22;11814;44.686;10.842;2023-05-07T06:25:50;21.00;99.90
23291;DHT22;11814;44.686;10.842;2023-05-07T06:28:16;21.00;99.90
23291;DHT22;11814;44.686;10.842;2023-05-07T06:30:42;21.10;99.90
23291;DHT22;11814;44.686;10.842;2023-05-07T06:33:08;21.30;99.90
23291;DHT22;11814;44.686;10.842;2023-05-07T06:35:34;21.50;99.90
23291;DHT22;11814;44.686;10.842;2023-05-07T06:38:00;22.00;99.90
23291;DHT22;11814;44.686;10.842;2023-05-07T06:40:26;22.60;98.00
23291;DHT22;11814;44.686;10.842;2023-05-07T06:42:52;23.20;96.00
23291;DHT22;11814;44.686;10.842;2023-05-07T06:45:18;23.70;94.00
23291;DHT22;11814;44.686;10.842;2023-05-07T06:47:44;24.00;92.40
23291;DHT22;11814;44.686;10.842;2023-05-07T06:50:10;24.10;91.20
23291;DHT22;11814;44.686;10.842;2023-05-07T06:52:36;23.80;90.30
23291;DHT22;11814;44.686;10.842;2023-05-07T06:55:02;23.60;90.30
23291;DHT22;11814;44.686;10.842;2023-05-07T06:57:28;23.30;90.50
23291;DHT22;11814;44.686;10.842;2023-05-07T06:59:53;23.00;90.90
23291;DHT22;11814;44.686;10.842;2023-05-07T07:02:19;22.70;91.40
23291;DHT22;11814;44.686;10.842;2023-05-07T07:04:45;22.40;91.80
23291;DHT22;11814;44.686;10.842;2023-05-07T07:07:10;22.00;92.10
23291;DHT22;11814;44.686;10.842;2023-05-07T07:09:36;21.80;92.60
23291;DHT22;11814;44.686;10.842;2023-05-07T07:12:02;21.80;93.20
23291;DHT22;11814;44.686;10.842;2023-05-07T07:14:28;21.80;93.80
23291;DHT22;11814;44.686;10.842;2023-05-07T07:16:54;21.70;94.30
23291;DHT22;11814;44.686;10.842;2023-05-07T07:19:19;21.70;94.80
23291;DHT22;11814;44.686;10.842;2023-05-07T07:21:46;21.80;95.40
23291;DHT22;11814;44.686;10.842;2023-05-07T07:24:12;22.00;95.90
23291;DHT22;11814;44.686;10.842;2023-05-07T07:26:38;22.20;95.50
23291;DHT22;11814;44.686;10.842;2023-05-07T07:29:05;22.10;94.90
23291;DHT22;11814;44.686;10.842;2023-05-07T07:31:32;22.00;94.80
23291;DHT22;11814;44.686;10.842;2023-05-07T07:33:58;22.00;95.10
23291;DHT22;11814;44.686;10.842;2023-05-07T07:36:23;22.00;95.40
23291;DHT22;11814;44.686;10.842;2023-05-07T07:38:49;22.00;95.40
23291;DHT22;11814;44.686;10.842;2023-05-07T07:41:15;22.30;95.50
23291;DHT22;11814;44.686;10.842;2023-05-07T07:43:40;22.70;95.20
23291;DHT22;11814;44.686;10.842;2023-05-07T07:46:06;23.20;94.30
23291;DHT22;11814;44.686;10.842;2023-05-07T07:48:33;23.50;93.20
23291;DHT22;11814;44.686;10.842;2023-05-07T07:50:59;23.60;92.40
23291;DHT22;11814;44.686;10.842;2023-05-07T07:53:25;23.60;92.00
23291;DHT22;11814;44.686;10.842;2023-05-07T07:55:50;23.50;91.90
23291;DHT22;11814;44.686;10.842;2023-05-07T07:58:16;23.30;91.90
23291;DHT22;11814;44.686;10.842;2023-05-07T08:00:42;23.10;92.20
23291;DHT22;11814;44.686;10.842;2023-05-07T08:03:10;23.00;92.50
23291;DHT22;11814;44.686;10.842;2023-05-07T08:05:36;22.90;92.80
23291;DHT22;11814;44.686;10.842;2023-05-07T08:08:04;22.90;93.10
23291;DHT22;11814;44.686;10.842;2023-05-07T08:10:29;23.00;93.30
23291;DHT22;11814;44.686;10.842;2023-05-07T08:12:59;23.00;93.30
23291;DHT22;11814;44.686;10.842;2023-05-07T08:15:25;23.00;93.40
23291;DHT22;11814;44.686;10.842;2023-05-07T08:17:50;23.00;93.50
23291;DHT22;11814;44.686;10.842;2023-05-07T08:20:16;23.00;93.50
23291;DHT22;11814;44.686;10.842;2023-05-07T08:22:42;22.90;93.40
23291;DHT22;11814;44.686;10.842;2023-05-07T08:25:08;22.90;93.70
23291;DHT22;11814;44.686;10.842;2023-05-07T08:27:34;22.90;93.90
23291;DHT22;11814;44.686;10.842;2023-05-07T08:29:59;22.80;93.60
23291;DHT22;11814;44.686;10.842;2023-05-07T08:32:25;22.90;93.70
23291;DHT22;11814;44.686;10.842;2023-05-07T08:34:51;23.00;93.70
23291;DHT22;11814;44.686;10.842;2023-05-07T08:37:17;23.10;94.40
23291;DHT22;11814;44.686;10.842;2023-05-07T08:39:42;23.20;94.00
23291;DHT22;11814;44.686;10.842;2023-05-07T08:42:09;23.20;93.80
23291;DHT22;11814;44.686;10.842;2023-05-07T08:44:38;23.20;93.80
23291;DHT22;11814;44.686;10.842;2023-05-07T08:47:07;23.30;93.80
23291;DHT22;11814;44.686;10.842;2023-05-07T08:49:33;23.40;93.50
23291;DHT22;11814;44.686;10.842;2023-05-07T08:52:00;23.40;93.10
23291;DHT22;11814;44.686;10.842;2023-05-07T08:54:26;23.50;92.90
23291;DHT22;11814;44.686;10.842;2023-05-07T08:56:53;23.60;92.50
23291;DHT22;11814;44.686;10.842;2023-05-07T08:59:18;23.60;92.20
23291;DHT22;11814;44.686;10.842;2023-05-07T09:01:44;23.60;92.00
23291;DHT22;11814;44.686;10.842;2023-05-07T09:04:10;23.70;91.80
23291;DHT22;11814;44.686;10.842;2023-05-07T09:06:36;23.80;91.80
23291;DHT22;11814;44.686;10.842;2023-05-07T09:09:03;23.90;91.80
23291;DHT22;11814;44.686;10.842;2023-05-07T09:11:30;24.00;91.80
23291;DHT22;11814;44.686;10.842;2023-05-07T09:13:57;24.10;91.70
23291;DHT22;11814;44.686;10.842;2023-05-07T09:16:27;24.20;91.60
23291;DHT22;11814;44.686;10.842;2023-05-07T09:18:54;24.30;91.00
23291;DHT22;11814;44.686;10.842;2023-05-07T09:21:21;24.40;90.50
23291;DHT22;11814;44.686;10.842;2023-05-07T09:23:51;24.50;90.20
23291;DHT22;11814;44.686;10.842;2023-05-07T09:26:17;24.60;90.20
23291;DHT22;11814;44.686;10.842;2023-05-07T09:28:43;24.70;89.70
23291;DHT22;11814;44.686;10.842;2023-05-07T09:31:10;24.70;88.50
23291;DHT22;11814;44.686;10.842;2023-05-07T09:33:37;24.80;87.00
23291;DHT22;11814;44.686;10.842;2023-05-07T09:36:07;24.80;85.60
23291;DHT22;11814;44.686;10.842;2023-05-07T09:38:34;24.80;84.20
23291;DHT22;11814;44.686;10.842;2023-05-07T09:41:09;24.80;84.40
23291;DHT22;11814;44.686;10.842;2023-05-07T09:43:36;24.90;83.60
23291;DHT22;11814;44.686;10.842;2023-05-07T09:46:05;25.00;82.40
23291;DHT22;11814;44.686;10.842;2023-05-07T09:48:32;25.00;82.40
23291;DHT22;11814;44.686;10.842;2023-05-07T09:51:02;25.10;82.10
23291;DHT22;11814;44.686;10.842;2023-05-07T09:53:30;25.20;82.80
23291;DHT22;11814;44.686;10.842;2023-05-07T09:55:57;25.30;82.80
23291;DHT22;11814;44.686;10.842;2023-05-07T09:58:25;25.30;81.90
23291;DHT22;11814;44.686;10.842;2023-05-07T10:00:52;25.40;81.60
23291;DHT22;11814;44.686;10.842;2023-05-07T10:03:19;25.50;80.80
23291;DHT22;11814;44.686;10.842;2023-05-07T10:05:46;25.60;79.50
23291;DHT22;11814;44.686;10.842;2023-05-07T10:08:13;25.60;79.50
23291;DHT22;11814;44.686;10.842;2023-05-07T10:10:39;25.70;78.50
23291;DHT22;11814;44.686;10.842;2023-05-07T10:13:06;25.70;77.40
23291;DHT22;11814;44.686;10.842;2023-05-07T10:15:36;25.70;76.60
23291;DHT22;11814;44.686;10.842;2023-05-07T10:18:04;25.80;75.90
23291;DHT22;11814;44.686;10.842;2023-05-07T10:20:33;25.80;75.40
23291;DHT22;11814;44.686;10.842;2023-05-07T10:22:59;25.80;74.80
23291;DHT22;11814;44.686;10.842;2023-05-07T10:25:31;25.90;74.10
23291;DHT22;11814;44.686;10.842;2023-05-07T10:28:03;25.90;72.30
23291;DHT22;11814;44.686;10.842;2023-05-07T10:33:04;26.00;71.30
23291;DHT22;11814;44.686;10.842;2023-05-07T10:35:40;26.00;69.30
23291;DHT22;11814;44.686;10.842;2023-05-07T10:38:06;26.00;66.80
23291;DHT22;11814;44.686;10.842;2023-05-07T10:40:33;26.00;64.70
23291;DHT22;11814;44.686;10.842;2023-05-07T10:43:00;26.10;62.70
23291;DHT22;11814;44.686;10.842;2023-05-07T10:45:27;26.10;62.00
23291;DHT22;11814;44.686;10.842;2023-05-07T10:48:10;26.20;61.20
23291;DHT22;11814;44.686;10.842;2023-05-07T10:50:37;26.20;60.70
23291;DHT22;11814;44.686;10.842;2023-05-07T10:53:23;26.20;60.30
23291;DHT22;11814;44.686;10.842;2023-05-07T10:56:24;26.30;59.70
23291;DHT22;11814;44.686;10.842;2023-05-07T10:58:37;26.30;59.20
23291;DHT22;11814;44.686;10.842;2023-05-07T11:01:03;26.40;58.90
23291;DHT22;11814;44.686;10.842;2023-05-07T11:03:29;26.40;59.00
23291;DHT22;11814;44.686;10.842;2023-05-07T11:06:12;26.50;59.90
23291;DHT22;11814;44.686;10.842;2023-05-07T11:08:57;26.60;60.00
23291;DHT22;11814;44.686;10.842;2023-05-07T11:11:49;26.60;60.30
23291;DHT22;11814;44.686;10.842;2023-05-07T11:17:07;26.60;56.70
23291;DHT22;11814;44.686;10.842;2023-05-07T11:19:50;26.60;56.30
23291;DHT22;11814;44.686;10.842;2023-05-07T11:25:01;26.80;57.00
23291;DHT22;11814;44.686;10.842;2023-05-07T11:27:27;26.80;57.30
23291;DHT22;11814;44.686;10.842;2023-05-07T11:29:53;26.80;56.10
23291;DHT22;11814;44.686;10.842;2023-05-07T11:32:28;26.90;54.80
23291;DHT22;11814;44.686;10.842;2023-05-07T11:34:55;26.90;54.00
23291;DHT22;11814;44.686;10.842;2023-05-07T11:37:22;26.90;53.60
23291;DHT22;11814;44.686;10.842;2023-05-07T11:39:48;27.00;54.10
23291;DHT22;11814;44.686;10.842;2023-05-07T11:42:27;26.80;55.80
23291;DHT22;11814;44.686;10.842;2023-05-07T11:44:53;26.80;57.70
23291;DHT22;11814;44.686;10.842;2023-05-07T11:47:19;26.80;58.40
23291;DHT22;11814;44.686;10.842;2023-05-07T11:49:49;26.90;59.10
23291;DHT22;11814;44.686;10.842;2023-05-07T11:52:16;26.90;59.00
23291;DHT22;11814;44.686;10.842;2023-05-07T11:54:51;27.00;57.70
23291;DHT22;11814;44.686;10.842;2023-05-07T11:57:18;27.00;56.70
23291;DHT22;11814;44.686;10.842;2023-05-07T11:59:44;27.00;57.00
23291;DHT22;11814;44.686;10.842;2023-05-07T12:02:10;27.00;57.80
23291;DHT22;11814;44.686;10.842;2023-05-07T12:04:38;27.10;58.40
23291;DHT22;11814;44.686;10.842;2023-05-07T12:07:04;27.10;58.80
23291;DHT22;11814;44.686;10.842;2023-05-07T12:09:32;27.10;59.30
23291;DHT22;11814;44.686;10.842;2023-05-07T12:12:04;27.10;60.10
23291;DHT22;11814;44.686;10.842;2023-05-07T12:14:29;27.30;60.80
23291;DHT22;11814;44.686;10.842;2023-05-07T12:16:56;27.30;60.80
23291;DHT22;11814;44.686;10.842;2023-05-07T12:19:22;27.20;60.90
23291;DHT22;11814;44.686;10.842;2023-05-07T12:21:48;27.20;60.90
23291;DHT22;11814;44.686;10.842;2023-05-07T12:24:14;27.20;61.10
23291;DHT22;11814;44.686;10.842;2023-05-07T12:26:41;27.20;61.20
23291;DHT22;11814;44.686;10.842;2023-05-07T12:29:07;27.20;61.10
23291;DHT22;11814;44.686;10.842;2023-05-07T12:31:33;27.20;60.70
23291;DHT22;11814;44.686;10.842;2023-05-07T12:33:59;27.30;60.90
23291;DHT22;11814;44.686;10.842;2023-05-07T12:36:24;27.30;61.70
23291;DHT22;11814;44.686;10.842;2023-05-07T12:38:51;27.40;60.10
23291;DHT22;11814;44.686;10.842;2023-05-07T12:41:17;27.30;59.70
23291;DHT22;11814;44.686;10.842;2023-05-07T12:43:46;27.20;59.70
23291;DHT22;11814;44.686;10.842;2023-05-07T12:46:12;27.20;59.30
23291;DHT22;11814;44.686;10.842;2023-05-07T12:48:44;27.10;59.50
23291;DHT22;11814;44.686;10.842;2023-05-07T12:51:11;27.10;59.40
23291;DHT22;11814;44.686;10.842;2023-05-07T12:53:42;27.10;59.60
23291;DHT22;11814;44.686;10.842;2023-05-07T12:56:08;27.20;59.30
23291;DHT22;11814;44.686;10.842;2023-05-07T12:58:35;27.20;59.40
23291;DHT22;11814;44.686;10.842;2023-05-07T13:01:08;27.20;59.30
23291;DHT22;11814;44.686;10.842;2023-05-07T13:03:36;27.30;59.30
23291;DHT22;11814;44.686;10.842;2023-05-07T13:06:07;27.40;59.30
23291;DHT22;11814;44.686;10.842;2023-05-07T13:08:39;27.40;59.30
23291;DHT22;11814;44.686;10.842;2023-05-07T13:11:08;27.50;59.40
23291;DHT22;11814;44.686;10.842;2023-05-07T13:13:35;27.50;59.40
23291;DHT22;11814;44.686;10.842;2023-05-07T13:16:02;27.60;59.30
23291;DHT22;11814;44.686;10.842;2023-05-07T13:18:30;27.50;59.50
23291;DHT22;11814;44.686;10.842;2023-05-07T13:20:56;27.60;59.80
23291;DHT22;11814;44.686;10.842;2023-05-07T13:23:21;27.70;60.00
23291;DHT22;11814;44.686;10.842;2023-05-07T13:25:48;27.70;59.40
23291;DHT22;11814;44.686;10.842;2023-05-07T13:28:14;27.60;58.90
23291;DHT22;11814;44.686;10.842;2023-05-07T13:30:40;27.50;58.80
23291;DHT22;11814;44.686;10.842;2023-05-07T13:33:08;27.50;59.70
23291;DHT22;11814;44.686;10.842;2023-05-07T13:35:34;27.50;59.40
23291;DHT22;11814;44.686;10.842;2023-05-07T13:38:00;27.60;59.30
23291;DHT22;11814;44.686;10.842;2023-05-07T13:40:26;27.60;59.30
23291;DHT22;11814;44.686;10.842;2023-05-07T13:42:52;27.60;59.50
23291;DHT22;11814;44.686;10.842;2023-05-07T13:45:18;27.70;59.80
23291;DHT22;11814;44.686;10.842;2023-05-07T13:47:45;27.80;60.30
23291;DHT22;11814;44.686;10.842;2023-05-07T13:50:12;27.80;60.60
23291;DHT22;11814;44.686;10.842;2023-05-07T13:52:42;27.80;60.90
23291;DHT22;11814;44.686;10.842;2023-05-07T13:55:09;27.90;60.90
23291;DHT22;11814;44.686;10.842;2023-05-07T13:57:36;27.90;60.90
23291;DHT22;11814;44.686;10.842;2023-05-07T14:00:04;27.90;60.70
23291;DHT22;11814;44.686;10.842;2023-05-07T14:02:31;27.90;61.00
23291;DHT22;11814;44.686;10.842;2023-05-07T14:04:56;27.90;61.10
23291;DHT22;11814;44.686;10.842;2023-05-07T14:07:22;27.90;60.80
23291;DHT22;11814;44.686;10.842;2023-05-07T14:09:48;27.90;60.60
23291;DHT22;11814;44.686;10.842;2023-05-07T14:12:13;27.90;60.70
23291;DHT22;11814;44.686;10.842;2023-05-07T14:14:39;27.80;60.10
23291;DHT22;11814;44.686;10.842;2023-05-07T14:17:05;27.80;60.30
23291;DHT22;11814;44.686;10.842;2023-05-07T14:19:30;27.60;60.10
23291;DHT22;11814;44.686;10.842;2023-05-07T14:21:56;27.80;60.10
23291;DHT22;11814;44.686;10.842;2023-05-07T14:24:24;27.80;59.90
23291;DHT22;11814;44.686;10.842;2023-05-07T14:26:50;27.90;60.10
23291;DHT22;11814;44.686;10.842;2023-05-07T14:29:16;27.80;60.10
23291;DHT22;11814;44.686;10.842;2023-05-07T14:31:44;27.80;60.30
23291;DHT22;11814;44.686;10.842;2023-05-07T14:34:11;27.70;60.40
23291;DHT22;11814;44.686;10.842;2023-05-07T14:36:36;27.60;60.60
23291;DHT22;11814;44.686;10.842;2023-05-07T14:39:03;27.70;60.60
23291;DHT22;11814;44.686;10.842;2023-05-07T14:41:29;27.60;60.50
23291;DHT22;11814;44.686;10.842;2023-05-07T14:43:55;27.60;60.80
23291;DHT22;11814;44.686;10.842;2023-05-07T14:46:21;27.70;61.20
23291;DHT22;11814;44.686;10.842;2023-05-07T14:48:46;27.70;61.20
23291;DHT22;11814;44.686;10.842;2023-05-07T14:51:13;27.70;61.10
23291;DHT22;11814;44.686;10.842;2023-05-07T14:53:41;27.70;61.20
23291;DHT22;11814;44.686;10.842;2023-05-07T14:56:07;27.60;61.00
23291;DHT22;11814;44.686;10.842;2023-05-07T14:58:34;27.50;60.70
23291;DHT22;11814;44.686;10.842;2023-05-07T15:01:00;27.50;60.80
23291;DHT22;11814;44.686;10.842;2023-05-07T15:03:27;27.50;61.20
23291;DHT22;11814;44.686;10.842;2023-05-07T15:05:52;27.60;61.20
23291;DHT22;11814;44.686;10.842;2023-05-07T15:08:18;27.60;61.20
23291;DHT22;11814;44.686;10.842;2023-05-07T15:10:44;27.60;61.50
23291;DHT22;11814;44.686;10.842;2023-05-07T15:13:11;27.60;61.60
23291;DHT22;11814;44.686;10.842;2023-05-07T15:15:39;27.70;61.60
23291;DHT22;11814;44.686;10.842;2023-05-07T15:18:05;27.70;61.20
23291;DHT22;11814;44.686;10.842;2023-05-07T15:20:31;27.70;60.60